sensor_id;sensor_type;location;lat;lon;timestamp;temperature;humidity
5554;DHT22;2800;49.528;8.666;2023-11-21T00:01:51;8.40;99.90
5554;DHT22;2800;49.528;8.666;2023-11-21T00:04:17;8.40;99.90
5554;DHT22;2800;49.528;8.666;2023-11-21T00:06:42;8.40;99.90
5554;DHT22;2800;49.528;8.666;2023-11-21T00:09:08;8.40;99.90
5554;DHT22;2800;49.528;8.666;2023-11-21T00:11:35;8.40;99.90
5554;DHT22;2800;49.528;8.666;2023-11-21T00:14:00;8.40;99.90
5554;DHT22;2800;49.528;8.666;2023-11-21T00:16:26;8.50;99.90
5554;DHT22;2800;49.528;8.666;2023-11-21T00:18:51;8.50;99.90
5554;DHT22;2800;49.528;8.666;2023-11-21T00:21:17;8.50;99.90
5554;DHT22;2800;49.528;8.666;2023-11-21T00:23:42;8.50;99.90
5554;DHT22;2800;49.528;8.666;2023-11-21T00:26:08;8.50;99.90
5554;DHT22;2800;49.528;8.666;2023-11-21T00:28:33;8.50;99.90
5554;DHT22;2800;49.528;8.666;2023-11-21T00:30:59;8.50;99.90
5554;DHT22;2800;49.528;8.666;2023-11-21T00:33:24;8.50;99.90
5554;DHT22;2800;49.528;8.666;2023-11-21T00:35:50;8.50;99.90
5554;DHT22;2800;49.528;8.666;2023-11-21T00:38:16;8.50;99.90
5554;DHT22;2800;49.528;8.666;2023-11-21T00:40:45;8.50;99.90
5554;DHT22;2800;49.528;8.666;2023-11-21T00:43:10;8.50;99.90
5554;DHT22;2800;49.528;8.666;2023-11-21T00:45:36;8.50;99.90
5554;DHT22;2800;49.528;8.666;2023-11-21T00:48:02;8.50;99.90
5554;DHT22;2800;49.528;8.666;2023-11-21T00:50:30;8.50;99.90
5554;DHT22;2800;49.528;8.666;2023-11-21T00:52:55;8.50;99.90
5554;DHT22;2800;49.528;8.666;2023-11-21T00:55:21;8.50;99.90
5554;DHT22;2800;49.528;8.666;2023-11-21T00:57:47;8.60;99.90
5554;DHT22;2800;49.528;8.666;2023-11-21T01:00:13;8.60;99.90
5554;DHT22;2800;49.528;8.666;2023-11-21T01:02:45;8.60;99.90
5554;DHT22;2800;49.528;8.666;2023-11-21T01:05:10;8.60;99.90
5554;DHT22;2800;49.528;8.666;2023-11-21T01:07:36;8.60;99.90
5554;DHT22;2800;49.528;8.666;2023-11-21T01:10:03;8.60;99.90
5554;DHT22;2800;49.528;8.666;2023-11-21T01:12:34;8.60;99.90
5554;DHT22;2800;49.528;8.666;2023-11-21T01:14:59;8.60;99.90
5554;DHT22;2800;49.528;8.666;2023-11-21T01:17:26;8.60;99.90
5554;DHT22;2800;49.528;8.666;2023-11-21T01:19:52;8.60;99.90
5554;DHT22;2800;49.528;8.666;2023-11-21T01:22:17;8.70;99.90
5554;DHT22;2800;49.528;8.666;2023-11-21T01:24:47;8.70;99.90
5554;DHT22;2800;49.528;8.666;2023-11-21T01:27:13;8.70;99.90
5554;DHT22;2800;49.528;8.666;2023-11-21T01:29:38;8.70;99.90
5554;DHT22;2800;49.528;8.666;2023-11-21T01:32:04;8.70;99.90
5554;DHT22;2800;49.528;8.666;2023-11-21T01:34:30;8.70;99.90
5554;DHT22;2800;49.528;8.666;2023-11-21T01:36:56;8.70;99.90
5554;DHT22;2800;49.528;8.666;2023-11-21T01:39:21;8.70;99.90
5554;DHT22;2800;49.528;8.666;2023-11-21T01:41:50;8.70;99.90
5554;DHT22;2800;49.528;8.666;2023-11-21T01:44:16;8.70;99.90
5554;DHT22;2800;49.528;8.666;2023-11-21T01:46:42;8.70;99.90
5554;DHT22;2800;49.528;8.666;2023-11-21T01:49:09;8.70;99.90
5554;DHT22;2800;49.528;8.666;2023-11-21T01:51:41;8.70;99.90
5554;DHT22;2800;49.528;8.666;2023-11-21T01:54:09;8.70;99.90
5554;DHT22;2800;49.528;8.666;2023-11-21T01:56:35;8.70;99.90
5554;DHT22;2800;49.528;8.666;2023-11-21T01:59:01;8.70;99.90
5554;DHT22;2800;49.528;8.666;2023-11-21T02:01:26;8.70;99.90
5554;DHT22;2800;49.528;8.666;2023-11-21T02:03:51;8.70;99.90
5554;DHT22;2800;49.528;8.666;2023-11-21T02:06:18;8.70;99.90
5554;DHT22;2800;49.528;8.666;2023-11-21T02:08:43;8.70;99.90
5554;DHT22;2800;49.528;8.666;2023-11-21T02:11:10;8.70;99.90
5554;DHT22;2800;49.528;8.666;2023-11-21T02:13:38;8.70;99.90
5554;DHT22;2800;49.528;8.666;2023-11-21T02:16:09;8.70;99.90
5554;DHT22;2800;49.528;8.666;2023-11-21T02:18:34;8.60;99.90
5554;DHT22;2800;49.528;8.666;2023-11-21T02:21:04;8.60;99.90
5554;DHT22;2800;49.528;8.666;2023-11-21T02:23:29;8.60;99.90
5554;DHT22;2800;49.528;8.666;2023-11-21T02:25:55;8.60;99.90
5554;DHT22;2800;49.528;8.666;2023-11-21T02:28:20;8.70;99.90
5554;DHT22;2800;49.528;8.666;2023-11-21T02:30:51;8.70;99.90
5554;DHT22;2800;49.528;8.666;2023-11-21T02:33:21;8.70;99.90
5554;DHT22;2800;49.528;8.666;2023-11-21T02:35:47;8.70;99.90
5554;DHT22;2800;49.528;8.666;2023-11-21T02:38:12;8.70;99.90
5554;DHT22;2800;49.528;8.666;2023-11-21T02:40:39;8.60;99.90
5554;DHT22;2800;49.528;8.666;2023-11-21T02:43:04;8.60;99.90
5554;DHT22;2800;49.528;8.666;2023-11-21T02:45:31;8.60;99.90
5554;DHT22;2800;49.528;8.666;2023-11-21T02:47:57;8.60;99.90
5554;DHT22;2800;49.528;8.666;2023-11-21T02:50:22;8.60;99.90
5554;DHT22;2800;49.528;8.666;2023-11-21T02:52:48;8.60;99.90
5554;DHT22;2800;49.528;8.666;2023-11-21T02:55:14;8.60;99.90
5554;DHT22;2800;49.528;8.666;2023-11-21T02:57:40;8.70;99.90
5554;DHT22;2800;49.528;8.666;2023-11-21T03:00:06;8.60;99.90
5554;DHT22;2800;49.528;8.666;2023-11-21T03:02:41;8.60;99.90
5554;DHT22;2800;49.528;8.666;2023-11-21T03:05:07;8.60;99.90
5554;DHT22;2800;49.528;8.666;2023-11-21T03:07:34;8.60;99.90
5554;DHT22;2800;49.528;8.666;2023-11-21T03:09:59;8.60;99.90
5554;DHT22;2800;49.528;8.666;2023-11-21T03:12:25;8.60;99.90
5554;DHT22;2800;49.528;8.666;2023-11-21T03:14:51;8.60;99.90
5554;DHT22;2800;49.528;8.666;2023-11-21T03:17:16;8.60;99.90
5554;DHT22;2800;49.528;8.666;2023-11-21T03:19:42;8.60;99.90
5554;DHT22;2800;49.528;8.666;2023-11-21T03:22:07;8.60;99.90
5554;DHT22;2800;49.528;8.666;2023-11-21T03:24:34;8.60;99.90
5554;DHT22;2800;49.528;8.666;2023-11-21T03:26:59;8.70;99.90
5554;DHT22;2800;49.528;8.666;2023-11-21T03:29:25;8.60;99.90
5554;DHT22;2800;49.528;8.666;2023-11-21T03:31:51;8.70;99.90
5554;DHT22;2800;49.528;8.666;2023-11-21T03:34:24;8.70;99.90
5554;DHT22;2800;49.528;8.666;2023-11-21T03:36:51;8.70;99.90
5554;DHT22;2800;49.528;8.666;2023-11-21T03:39:17;8.60;99.90
5554;DHT22;2800;49.528;8.666;2023-11-21T03:41:43;8.60;99.90
5554;DHT22;2800;49.528;8.666;2023-11-21T03:44:08;8.60;99.90
5554;DHT22;2800;49.528;8.666;2023-11-21T03:46:34;8.60;99.90
5554;DHT22;2800;49.528;8.666;2023-11-21T03:48:59;8.60;99.90
5554;DHT22;2800;49.528;8.666;2023-11-21T03:51:25;8.60;99.90
5554;DHT22;2800;49.528;8.666;2023-11-21T03:53:50;8.60;99.90
5554;DHT22;2800;49.528;8.666;2023-11-21T03:56:16;8.60;99.90
5554;DHT22;2800;49.528;8.666;2023-11-21T03:58:41;8.60;99.90
5554;DHT22;2800;49.528;8.666;2023-11-21T04:01:07;8.60;99.90
5554;DHT22;2800;49.528;8.666;2023-11-21T04:03:32;8.60;99.90
5554;DHT22;2800;49.528;8.666;2023-11-21T04:05:58;8.60;99.90
5554;DHT22;2800;49.528;8.666;2023-11-21T04:08:23;8.60;99.90
5554;DHT22;2800;49.528;8.666;2023-11-21T04:10:50;8.70;99.90
5554;DHT22;2800;49.528;8.666;2023-11-21T04:13:16;8.60;99.90
5554;DHT22;2800;49.528;8.666;2023-11-21T04:15:41;8.70;99.90
5554;DHT22;2800;49.528;8.666;2023-11-21T04:18:07;8.60;99.90
5554;DHT22;2800;49.528;8.666;2023-11-21T04:20:32;8.60;99.90
5554;DHT22;2800;49.528;8.666;2023-11-21T04:22:58;8.60;99.90
5554;DHT22;2800;49.528;8.666;2023-11-21T04:25:23;8.60;99.90
5554;DHT22;2800;49.528;8.666;2023-11-21T04:27:49;8.60;99.90
5554;DHT22;2800;49.528;8.666;2023-11-21T04:30:15;8.60;99.90
5554;DHT22;2800;49.528;8.666;2023-11-21T04:32:40;8.60;99.90
5554;DHT22;2800;49.528;8.666;2023-11-21T04:35:07;8.60;99.90
5554;DHT22;2800;49.528;8.666;2023-11-21T04:37:34;8.60;99.90
5554;DHT22;2800;49.528;8.666;2023-11-21T04:39:59;8.60;99.90
5554;DHT22;2800;49.528;8.666;2023-11-21T04:42:25;8.60;99.90
5554;DHT22;2800;49.528;8.666;2023-11-21T04:44:50;8.60;99.90
5554;DHT22;2800;49.528;8.666;2023-11-21T04:47:18;8.60;99.90
5554;DHT22;2800;49.528;8.666;2023-11-21T04:49:46;8.60;99.90
5554;DHT22;2800;49.528;8.666;2023-11-21T04:52:14;8.60;99.90
5554;DHT22;2800;49.528;8.666;2023-11-21T04:54:40;8.60;99.90
5554;DHT22;2800;49.528;8.666;2023-11-21T04:57:05;8.60;99.90
5554;DHT22;2800;49.528;8.666;2023-11-21T04:59:33;8.60;99.90
5554;DHT22;2800;49.528;8.666;2023-11-21T05:01:58;8.60;99.90
5554;DHT22;2800;49.528;8.666;2023-11-21T05:04:25;8.60;99.90
5554;DHT22;2800;49.528;8.666;2023-11-21T05:06:51;8.60;99.90
5554;DHT22;2800;49.528;8.666;2023-11-21T05:09:16;8.60;99.90
5554;DHT22;2800;49.528;8.666;2023-11-21T05:11:42;8.60;99.90
5554;DHT22;2800;49.528;8.666;2023-11-21T05:14:08;8.70;99.90
5554;DHT22;2800;49.528;8.666;2023-11-21T05:16:34;8.70;99.90
5554;DHT22;2800;49.528;8.666;2023-11-21T05:19:00;8.70;99.90
5554;DHT22;2800;49.528;8.666;2023-11-21T05:21:27;8.70;99.90
5554;DHT22;2800;49.528;8.666;2023-11-21T05:23:52;8.70;99.90
5554;DHT22;2800;49.528;8.666;2023-11-21T05:26:18;8.70;99.90
5554;DHT22;2800;49.528;8.666;2023-11-21T05:28:43;8.70;99.90
5554;DHT22;2800;49.528;8.666;2023-11-21T05:31:09;8.80;99.90
5554;DHT22;2800;49.528;8.666;2023-11-21T05:33:36;8.70;99.90
5554;DHT22;2800;49.528;8.666;2023-11-21T05:36:02;8.70;99.90
5554;DHT22;2800;49.528;8.666;2023-11-21T05:38:27;8.70;99.90
5554;DHT22;2800;49.528;8.666;2023-11-21T05:40:53;8.70;99.90
5554;DHT22;2800;49.528;8.666;2023-11-21T05:43:19;8.70;99.90
5554;DHT22;2800;49.528;8.666;2023-11-21T05:45:45;8.70;99.90
5554;DHT22;2800;49.528;8.666;2023-11-21T05:48:10;8.80;99.90
5554;DHT22;2800;49.528;8.666;2023-11-21T05:50:36;8.70;99.90
5554;DHT22;2800;49.528;8.666;2023-11-21T05:53:03;8.80;99.90
5554;DHT22;2800;49.528;8.666;2023-11-21T05:55:28;8.80;99.90
5554;DHT22;2800;49.528;8.666;2023-11-21T05:57:54;8.70;99.90
5554;DHT22;2800;49.528;8.666;2023-11-21T06:00:20;8.70;99.90
5554;DHT22;2800;49.528;8.666;2023-11-21T06:02:46;8.70;99.90
5554;DHT22;2800;49.528;8.666;2023-11-21T06:05:13;8.70;99.90
5554;DHT22;2800;49.528;8.666;2023-11-21T06:07:38;8.70;99.90
5554;DHT22;2800;49.528;8.666;2023-11-21T06:10:06;8.70;99.90
5554;DHT22;2800;49.528;8.666;2023-11-21T06:12:34;8.80;99.90
5554;DHT22;2800;49.528;8.666;2023-11-21T06:15:02;8.80;99.90
5554;DHT22;2800;49.528;8.666;2023-11-21T06:17:33;8.80;99.90
5554;DHT22;2800;49.528;8.666;2023-11-21T06:20:01;8.80;99.90
5554;DHT22;2800;49.528;8.666;2023-11-21T06:22:29;8.80;99.90
5554;DHT22;2800;49.528;8.666;2023-11-21T06:24:55;8.80;99.90
5554;DHT22;2800;49.528;8.666;2023-11-21T06:27:21;8.80;99.90
5554;DHT22;2800;49.528;8.666;2023-11-21T06:29:46;8.80;99.90
5554;DHT22;2800;49.528;8.666;2023-11-21T06:32:12;8.80;99.90
5554;DHT22;2800;49.528;8.666;2023-11-21T06:34:38;8.80;99.90
5554;DHT22;2800;49.528;8.666;2023-11-21T06:37:04;8.80;99.90
5554;DHT22;2800;49.528;8.666;2023-11-21T06:39:29;8.80;99.90
5554;DHT22;2800;49.528;8.666;2023-11-21T06:41:55;8.80;99.90
5554;DHT22;2800;49.528;8.666;2023-11-21T06:44:21;8.80;99.90
5554;DHT22;2800;49.528;8.666;2023-11-21T06:46:47;8.80;99.90
5554;DHT22;2800;49.528;8.666;2023-11-21T06:49:13;8.80;99.90
5554;DHT22;2800;49.528;8.666;2023-11-21T06:51:39;8.80;99.90
5554;DHT22;2800;49.528;8.666;2023-11-21T06:54:05;8.80;99.90
5554;DHT22;2800;49.528;8.666;2023-11-21T06:56:31;8.80;99.90
5554;DHT22;2800;49.528;8.666;2023-11-21T06:58:57;8.90;99.90
5554;DHT22;2800;49.528;8.666;2023-11-21T07:01:22;8.90;99.90
5554;DHT22;2800;49.528;8.666;2023-11-21T07:03:48;8.90;99.90
5554;DHT22;2800;49.528;8.666;2023-11-21T07:06:13;8.90;99.90
5554;DHT22;2800;49.528;8.666;2023-11-21T07:08:39;8.90;99.90
5554;DHT22;2800;49.528;8.666;2023-11-21T07:11:05;8.90;99.90
5554;DHT22;2800;49.528;8.666;2023-11-21T07:13:30;9.00;99.90
5554;DHT22;2800;49.528;8.666;2023-11-21T07:15:57;9.00;99.90
5554;DHT22;2800;49.528;8.666;2023-11-21T07:18:24;9.00;99.90
5554;DHT22;2800;49.528;8.666;2023-11-21T07:20:49;9.00;99.90
5554;DHT22;2800;49.528;8.666;2023-11-21T07:23:15;9.00;99.90
5554;DHT22;2800;49.528;8.666;2023-11-21T07:25:41;9.00;99.90
5554;DHT22;2800;49.528;8.666;2023-11-21T07:28:07;9.00;99.90
5554;DHT22;2800;49.528;8.666;2023-11-21T07:30:32;9.10;99.90
5554;DHT22;2800;49.528;8.666;2023-11-21T07:32:58;9.10;99.90
5554;DHT22;2800;49.528;8.666;2023-11-21T07:35:24;9.10;99.90
5554;DHT22;2800;49.528;8.666;2023-11-21T07:37:49;9.10;99.90
5554;DHT22;2800;49.528;8.666;2023-11-21T07:40:15;9.10;99.90
5554;DHT22;2800;49.528;8.666;2023-11-21T07:42:41;9.10;99.90
5554;DHT22;2800;49.528;8.666;2023-11-21T07:45:08;9.10;99.90
5554;DHT22;2800;49.528;8.666;2023-11-21T07:47:34;9.10;99.90
5554;DHT22;2800;49.528;8.666;2023-11-21T07:50:00;9.10;99.90
5554;DHT22;2800;49.528;8.666;2023-11-21T07:52:28;9.20;99.90
5554;DHT22;2800;49.528;8.666;2023-11-21T07:54:53;9.20;99.90
5554;DHT22;2800;49.528;8.666;2023-11-21T07:57:19;9.20;99.90
5554;DHT22;2800;49.528;8.666;2023-11-21T07:59:44;9.20;99.90
5554;DHT22;2800;49.528;8.666;2023-11-21T08:02:10;9.20;99.90
5554;DHT22;2800;49.528;8.666;2023-11-21T08:04:35;9.20;99.90
5554;DHT22;2800;49.528;8.666;2023-11-21T08:07:01;9.30;99.90
5554;DHT22;2800;49.528;8.666;2023-11-21T08:09:27;9.30;99.90
5554;DHT22;2800;49.528;8.666;2023-11-21T08:11:53;9.20;99.90
5554;DHT22;2800;49.528;8.666;2023-11-21T08:14:18;9.30;99.90
5554;DHT22;2800;49.528;8.666;2023-11-21T08:16:44;9.00;99.90
5554;DHT22;2800;49.528;8.666;2023-11-21T08:19:10;9.40;99.90
5554;DHT22;2800;49.528;8.666;2023-11-21T08:21:36;9.30;99.90
5554;DHT22;2800;49.528;8.666;2023-11-21T08:24:05;9.30;99.90
5554;DHT22;2800;49.528;8.666;2023-11-21T08:26:30;9.30;99.90
5554;DHT22;2800;49.528;8.666;2023-11-21T08:28:56;9.40;99.90
5554;DHT22;2800;49.528;8.666;2023-11-21T08:31:28;9.40;99.90
5554;DHT22;2800;49.528;8.666;2023-11-21T08:33:54;9.50;99.90
5554;DHT22;2800;49.528;8.666;2023-11-21T08:36:21;9.60;99.90
5554;DHT22;2800;49.528;8.666;2023-11-21T08:38:48;9.70;99.90
5554;DHT22;2800;49.528;8.666;2023-11-21T08:41:14;9.70;99.90
5554;DHT22;2800;49.528;8.666;2023-11-21T08:43:40;9.80;99.90
5554;DHT22;2800;49.528;8.666;2023-11-21T08:46:06;9.70;99.90
5554;DHT22;2800;49.528;8.666;2023-11-21T08:48:35;9.70;99.90
5554;DHT22;2800;49.528;8.666;2023-11-21T08:51:01;9.60;99.90
5554;DHT22;2800;49.528;8.666;2023-11-21T08:53:26;9.60;99.90
5554;DHT22;2800;49.528;8.666;2023-11-21T08:55:52;9.60;99.90
5554;DHT22;2800;49.528;8.666;2023-11-21T08:58:19;9.50;99.90
5554;DHT22;2800;49.528;8.666;2023-11-21T09:00:44;9.60;99.90
5554;DHT22;2800;49.528;8.666;2023-11-21T09:03:12;9.50;99.90
5554;DHT22;2800;49.528;8.666;2023-11-21T09:05:38;9.60;99.90
5554;DHT22;2800;49.528;8.666;2023-11-21T09:08:04;9.60;99.90
5554;DHT22;2800;49.528;8.666;2023-11-21T09:10:30;9.60;99.90
5554;DHT22;2800;49.528;8.666;2023-11-21T09:12:55;9.70;99.90
5554;DHT22;2800;49.528;8.666;2023-11-21T09:15:22;9.70;99.90
5554;DHT22;2800;49.528;8.666;2023-11-21T09:17:47;9.70;99.90
5554;DHT22;2800;49.528;8.666;2023-11-21T09:20:13;9.80;99.90
5554;DHT22;2800;49.528;8.666;2023-11-21T09:22:40;9.80;99.90
5554;DHT22;2800;49.528;8.666;2023-11-21T09:25:06;9.80;99.90
5554;DHT22;2800;49.528;8.666;2023-11-21T09:27:33;9.70;99.90
5554;DHT22;2800;49.528;8.666;2023-11-21T09:30:01;9.70;99.90
5554;DHT22;2800;49.528;8.666;2023-11-21T09:32:26;9.80;99.90
5554;DHT22;2800;49.528;8.666;2023-11-21T09:34:52;9.80;99.90
5554;DHT22;2800;49.528;8.666;2023-11-21T09:37:19;9.90;99.90
5554;DHT22;2800;49.528;8.666;2023-11-21T09:39:45;9.90;99.90
5554;DHT22;2800;49.528;8.666;2023-11-21T09:42:20;10.00;99.90
5554;DHT22;2800;49.528;8.666;2023-11-21T09:47:26;10.00;99.90
5554;DHT22;2800;49.528;8.666;2023-11-21T09:49:54;10.00;99.90
5554;DHT22;2800;49.528;8.666;2023-11-21T09:52:25;10.10;99.90
5554;DHT22;2800;49.528;8.666;2023-11-21T09:54:52;10.10;99.90
5554;DHT22;2800;49.528;8.666;2023-11-21T09:57:20;10.00;99.90
5554;DHT22;2800;49.528;8.666;2023-11-21T09:59:46;10.00;99.90
5554;DHT22;2800;49.528;8.666;2023-11-21T10:02:17;10.00;99.90
5554;DHT22;2800;49.528;8.666;2023-11-21T10:04:44;10.00;99.90
5554;DHT22;2800;49.528;8.666;2023-11-21T10:07:11;10.00;99.90
5554;DHT22;2800;49.528;8.666;2023-11-21T10:09:37;10.00;99.90
5554;DHT22;2800;49.528;8.666;2023-11-21T10:12:06;10.00;99.90
5554;DHT22;2800;49.528;8.666;2023-11-21T10:14:34;10.00;99.90
5554;DHT22;2800;49.528;8.666;2023-11-21T10:17:02;10.00;99.90
5554;DHT22;2800;49.528;8.666;2023-11-21T10:19:29;10.00;99.90
5554;DHT22;2800;49.528;8.666;2023-11-21T10:21:55;10.00;99.90
5554;DHT22;2800;49.528;8.666;2023-11-21T10:24:23;10.00;99.90
5554;DHT22;2800;49.528;8.666;2023-11-21T10:26:48;10.00;99.90
5554;DHT22;2800;49.528;8.666;2023-11-21T10:29:16;9.90;99.90
5554;DHT22;2800;49.528;8.666;2023-11-21T10:31:52;9.90;99.90
5554;DHT22;2800;49.528;8.666;2023-11-21T10:34:20;9.90;99.90
5554;DHT22;2800;49.528;8.666;2023-11-21T10:36:46;9.90;99.90
5554;DHT22;2800;49.528;8.666;2023-11-21T10:39:19;9.80;99.90
5554;DHT22;2800;49.528;8.666;2023-11-21T10:41:45;9.90;99.90
5554;DHT22;2800;49.528;8.666;2023-11-21T10:44:17;9.90;99.90
5554;DHT22;2800;49.528;8.666;2023-11-21T10:46:51;9.90;99.90
5554;DHT22;2800;49.528;8.666;2023-11-21T10:49:19;10.00;99.90
5554;DHT22;2800;49.528;8.666;2023-11-21T10:51:45;9.90;99.90
5554;DHT22;2800;49.528;8.666;2023-11-21T10:54:11;9.90;99.90
5554;DHT22;2800;49.528;8.666;2023-11-21T10:56:39;9.90;99.90
5554;DHT22;2800;49.528;8.666;2023-11-21T10:59:09;9.90;99.90
5554;DHT22;2800;49.528;8.666;2023-11-21T11:01:36;9.80;99.90
5554;DHT22;2800;49.528;8.666;2023-11-21T11:04:06;9.90;99.90
5554;DHT22;2800;49.528;8.666;2023-11-21T11:06:34;9.80;99.90
5554;DHT22;2800;49.528;8.666;2023-11-21T11:09:00;9.70;99.90
5554;DHT22;2800;49.528;8.666;2023-11-21T11:11:28;9.70;99.90
5554;DHT22;2800;49.528;8.666;2023-11-21T11:13:55;9.70;99.90
5554;DHT22;2800;49.528;8.666;2023-11-21T11:16:22;9.70;99.90
5554;DHT22;2800;49.528;8.666;2023-11-21T11:18:50;9.80;99.90
5554;DHT22;2800;49.528;8.666;2023-11-21T11:24:05;10.00;99.90
5554;DHT22;2800;49.528;8.666;2023-11-21T11:26:52;10.00;99.90
5554;DHT22;2800;49.528;8.666;2023-11-21T11:29:49;10.00;99.90
5554;DHT22;2800;49.528;8.666;2023-11-21T11:32:33;10.10;99.90
5554;DHT22;2800;49.528;8.666;2023-11-21T11:35:12;10.20;99.90
5554;DHT22;2800;49.528;8.666;2023-11-21T11:37:42;10.30;99.90
5554;DHT22;2800;49.528;8.666;2023-11-21T11:40:08;10.40;99.90
5554;DHT22;2800;49.528;8.666;2023-11-21T11:42:36;10.50;99.90
5554;DHT22;2800;49.528;8.666;2023-11-21T11:45:01;10.70;99.90
5554;DHT22;2800;49.528;8.666;2023-11-21T11:47:31;11.00;99.90
5554;DHT22;2800;49.528;8.666;2023-11-21T11:52:34;11.40;99.90
5554;DHT22;2800;49.528;8.666;2023-11-21T11:55:01;12.10;99.90
5554;DHT22;2800;49.528;8.666;2023-11-21T11:57:30;11.50;99.90
5554;DHT22;2800;49.528;8.666;2023-11-21T12:02:58;11.50;99.90
5554;DHT22;2800;49.528;8.666;2023-11-21T12:05:25;11.70;99.90
5554;DHT22;2800;49.528;8.666;2023-11-21T12:07:57;12.40;99.90
5554;DHT22;2800;49.528;8.666;2023-11-21T12:10:28;13.50;99.90
5554;DHT22;2800;49.528;8.666;2023-11-21T12:12:57;14.70;99.90
5554;DHT22;2800;49.528;8.666;2023-11-21T12:15:23;15.10;99.90
5554;DHT22;2800;49.528;8.666;2023-11-21T12:17:50;14.30;99.90
5554;DHT22;2800;49.528;8.666;2023-11-21T12:20:19;13.60;99.90
5554;DHT22;2800;49.528;8.666;2023-11-21T12:22:46;13.00;99.90
5554;DHT22;2800;49.528;8.666;2023-11-21T12:25:23;12.50;99.90
5554;DHT22;2800;49.528;8.666;2023-11-21T12:27:51;12.30;99.90
5554;DHT22;2800;49.528;8.666;2023-11-21T12:30:20;12.00;99.90
5554;DHT22;2800;49.528;8.666;2023-11-21T12:32:54;12.00;99.90
5554;DHT22;2800;49.528;8.666;2023-11-21T12:35:24;11.80;99.90
5554;DHT22;2800;49.528;8.666;2023-11-21T12:37:52;12.90;99.90
5554;DHT22;2800;49.528;8.666;2023-11-21T12:40:18;14.10;99.90
5554;DHT22;2800;49.528;8.666;2023-11-21T12:42:46;14.80;99.90
5554;DHT22;2800;49.528;8.666;2023-11-21T12:47:49;15.90;99.90
5554;DHT22;2800;49.528;8.666;2023-11-21T12:50:22;16.10;99.90
5554;DHT22;2800;49.528;8.666;2023-11-21T12:52:57;16.60;99.90
5554;DHT22;2800;49.528;8.666;2023-11-21T12:55:24;17.00;99.90
5554;DHT22;2800;49.528;8.666;2023-11-21T12:57:53;17.60;99.90
5554;DHT22;2800;49.528;8.666;2023-11-21T13:00:31;18.30;99.90
5554;DHT22;2800;49.528;8.666;2023-11-21T13:02:59;18.70;99.90
5554;DHT22;2800;49.528;8.666;2023-11-21T13:05:35;18.70;99.90
5554;DHT22;2800;49.528;8.666;2023-11-21T13:08:04;17.20;99.90
5554;DHT22;2800;49.528;8.666;2023-11-21T13:10:34;16.90;99.90
5554;DHT22;2800;49.528;8.666;2023-11-21T13:13:04;15.90;99.90
5554;DHT22;2800;49.528;8.666;2023-11-21T13:15:40;15.20;99.90
5554;DHT22;2800;49.528;8.666;2023-11-21T13:18:06;14.50;99.90
5554;DHT22;2800;49.528;8.666;2023-11-21T13:20:32;13.90;99.90
5554;DHT22;2800;49.528;8.666;2023-11-21T13:22:58;13.70;99.90
5554;DHT22;2800;49.528;8.666;2023-11-21T13:25:26;13.30;99.90
5554;DHT22;2800;49.528;8.666;2023-11-21T13:27:57;13.00;99.90
5554;DHT22;2800;49.528;8.666;2023-11-21T13:30:24;12.90;99.90
5554;DHT22;2800;49.528;8.666;2023-11-21T13:32:56;12.80;99.90
5554;DHT22;2800;49.528;8.666;2023-11-21T13:35:28;12.60;99.90
5554;DHT22;2800;49.528;8.666;2023-11-21T13:38:21;12.50;99.90
5554;DHT22;2800;49.528;8.666;2023-11-21T13:40:52;12.40;99.90
5554;DHT22;2800;49.528;8.666;2023-11-21T13:43:21;12.40;99.90
5554;DHT22;2800;49.528;8.666;2023-11-21T13:45:49;12.20;99.90
5554;DHT22;2800;49.528;8.666;2023-11-21T13:48:24;12.20;99.90
5554;DHT22;2800;49.528;8.666;2023-11-21T13:51:12;12.50;99.90
5554;DHT22;2800;49.528;8.666;2023-11-21T13:53:43;13.20;99.90
5554;DHT22;2800;49.528;8.666;2023-11-21T13:56:09;13.20;99.90
5554;DHT22;2800;49.528;8.666;2023-11-21T13:58:35;13.00;99.90
5554;DHT22;2800;49.528;8.666;2023-11-21T14:01:20;12.90;99.90
5554;DHT22;2800;49.528;8.666;2023-11-21T14:03:55;12.50;99.90
5554;DHT22;2800;49.528;8.666;2023-11-21T14:06:26;12.20;99.90
5554;DHT22;2800;49.528;8.666;2023-11-21T14:09:00;12.00;99.90
5554;DHT22;2800;49.528;8.666;2023-11-21T14:11:30;11.90;99.90
5554;DHT22;2800;49.528;8.666;2023-11-21T14:13:56;11.60;99.90
5554;DHT22;2800;49.528;8.666;2023-11-21T14:16:21;11.60;99.90
5554;DHT22;2800;49.528;8.666;2023-11-21T14:18:48;11.60;99.90
5554;DHT22;2800;49.528;8.666;2023-11-21T14:21:22;11.50;99.90
5554;DHT22;2800;49.528;8.666;2023-11-21T14:23:48;11.40;99.90
5554;DHT22;2800;49.528;8.666;2023-11-21T14:26:14;11.30;99.90
5554;DHT22;2800;49.528;8.666;2023-11-21T14:28:41;11.20;99.90
5554;DHT22;2800;49.528;8.666;2023-11-21T14:31:07;11.10;99.90
5554;DHT22;2800;49.528;8.666;2023-11-21T14:33:33;11.10;99.90
5554;DHT22;2800;49.528;8.666;2023-11-21T14:35:58;11.10;99.90
5554;DHT22;2800;49.528;8.666;2023-11-21T14:38:24;11.10;99.90
5554;DHT22;2800;49.528;8.666;2023-11-21T14:40:50;11.00;99.90
5554;DHT22;2800;49.528;8.666;2023-11-21T14:43:15;11.00;99.90
5554;DHT22;2800;49.528;8.666;2023-11-21T14:45:42;11.00;99.90
5554;DHT22;2800;49.528;8.666;2023-11-21T14:48:07;11.00;99.90
5554;DHT22;2800;49.528;8.666;2023-11-21T14:50:42;11.00;99.90
5554;DHT22;2800;49.528;8.666;2023-11-21T14:53:11;11.00;99.90
5554;DHT22;2800;49.528;8.666;2023-11-21T14:55:39;11.00;99.90
5554;DHT22;2800;49.528;8.666;2023-11-21T14:58:19;10.80;99.90
5554;DHT22;2800;49.528;8.666;2023-11-21T15:00:57;10.80;99.90
5554;DHT22;2800;49.528;8.666;2023-11-21T15:03:24;10.70;99.90
5554;DHT22;2800;49.528;8.666;2023-11-21T15:06:09;10.60;99.90
5554;DHT22;2800;49.528;8.666;2023-11-21T15:08:56;10.60;99.90
5554;DHT22;2800;49.528;8.666;2023-11-21T15:11:35;10.50;99.90
5554;DHT22;2800;49.528;8.666;2023-11-21T15:14:02;10.40;99.90
5554;DHT22;2800;49.528;8.666;2023-11-21T15:16:32;10.40;99.90
5554;DHT22;2800;49.528;8.666;2023-11-21T15:18:58;10.30;99.90
5554;DHT22;2800;49.528;8.666;2023-11-21T15:21:23;10.30;99.90
5554;DHT22;2800;49.528;8.666;2023-11-21T15:23:50;10.30;99.90
5554;DHT22;2800;49.528;8.666;2023-11-21T15:26:16;10.20;99.90
5554;DHT22;2800;49.528;8.666;2023-11-21T15:28:41;10.90;99.90
5554;DHT22;2800;49.528;8.666;2023-11-21T15:31:07;10.10;99.90
5554;DHT22;2800;49.528;8.666;2023-11-21T15:33:33;10.10;99.90
5554;DHT22;2800;49.528;8.666;2023-11-21T15:36:01;10.10;99.90
5554;DHT22;2800;49.528;8.666;2023-11-21T15:38:27;10.00;99.90
5554;DHT22;2800;49.528;8.666;2023-11-21T15:40:53;10.00;99.90
5554;DHT22;2800;49.528;8.666;2023-11-21T15:43:19;10.00;99.90
5554;DHT22;2800;49.528;8.666;2023-11-21T15:45:45;10.00;99.90
5554;DHT22;2800;49.528;8.666;2023-11-21T15:48:11;9.90;99.90
5554;DHT22;2800;49.528;8.666;2023-11-21T15:50:36;9.90;99.90
5554;DHT22;2800;49.528;8.666;2023-11-21T15:53:02;9.90;99.90
5554;DHT22;2800;49.528;8.666;2023-11-21T15:55:30;9.80;99.90
5554;DHT22;2800;49.528;8.666;2023-11-21T15:57:55;9.70;99.90
5554;DHT22;2800;49.528;8.666;2023-11-21T16:00:21;9.80;99.90
5554;DHT22;2800;49.528;8.666;2023-11-21T16:02:47;9.70;99.90
5554;DHT22;2800;49.528;8.666;2023-11-21T16:05:13;9.70;99.90
5554;DHT22;2800;49.528;8.666;2023-11-21T16:07:40;9.70;99.90
5554;DHT22;2800;49.528;8.666;2023-11-21T16:10:07;9.70;99.90
5554;DHT22;2800;49.528;8.666;2023-11-21T16:12:36;9.70;99.90
5554;DHT22;2800;49.528;8.666;2023-11-21T16:15:02;9.70;99.90
5554;DHT22;2800;49.528;8.666;2023-11-21T16:17:34;9.60;99.90
5554;DHT22;2800;49.528;8.666;2023-11-21T16:19:59;9.60;99.90
5554;DHT22;2800;49.528;8.666;2023-11-21T16:22:25;9.60;99.90
5554;DHT22;2800;49.528;8.666;2023-11-21T16:24:53;9.50;99.90
5554;DHT22;2800;49.528;8.666;2023-11-21T16:27:18;9.50;99.90